sensor_id;sensor_type;location;lat;lon;timestamp;pressure;altitude;pressure_sealevel;temperature;humidity
62462;BME280;48511;38.664;-9.202;2022-12-05T00:00:07;50071.47;;;-146.63;84.06
62462;BME280;48511;38.664;-9.202;2022-12-05T00:02:08;50035.94;;;-146.63;83.98
62462;BME280;48511;38.664;-9.202;2022-12-05T00:04:11;50045.81;;;-146.63;84.11
62462;BME280;48511;38.664;-9.202;2022-12-05T00:06:12;50063.59;;;-146.63;84.04
62462;BME280;48511;38.664;-9.202;2022-12-05T00:08:13;49992.53;;;-146.63;84.20
62462;BME280;48511;38.664;-9.202;2022-12-05T00:10:13;50012.25;;;-146.63;84.19
62462;BME280;48511;38.664;-9.202;2022-12-05T00:12:14;50026.09;;;-146.63;84.09
62462;BME280;48511;38.664;-9.202;2022-12-05T00:14:15;50067.53;;;-146.63;84.00
62462;BME280;48511;38.664;-9.202;2022-12-05T00:16:17;50012.25;;;-146.63;84.07
62462;BME280;48511;38.664;-9.202;2022-12-05T00:18:18;50063.59;;;-146.63;84.01
62462;BME280;48511;38.664;-9.202;2022-12-05T00:20:19;50028.06;;;-146.63;83.95
62462;BME280;48511;38.664;-9.202;2022-12-05T00:22:20;50043.84;;;-146.63;83.93
62462;BME280;48511;38.664;-9.202;2022-12-05T00:24:21;50057.66;;;-146.63;83.89
62462;BME280;48511;38.664;-9.202;2022-12-05T00:26:22;50016.22;;;-146.63;83.84
62462;BME280;48511;38.664;-9.202;2022-12-05T00:28:23;50079.38;;;-146.63;83.80
62462;BME280;48511;38.664;-9.202;2022-12-05T00:30:23;50045.81;;;-146.63;83.75
62462;BME280;48511;38.664;-9.202;2022-12-05T00:32:25;50016.22;;;-146.63;83.65
62462;BME280;48511;38.664;-9.202;2022-12-05T00:34:25;50071.47;;;-146.63;83.77
62462;BME280;48511;38.664;-9.202;2022-12-05T00:36:28;50041.88;;;-146.63;83.70
62462;BME280;48511;38.664;-9.202;2022-12-05T00:38:29;50067.53;;;-146.63;83.79
62462;BME280;48511;38.664;-9.202;2022-12-05T00:40:30;50071.47;;;-146.63;83.76
62462;BME280;48511;38.664;-9.202;2022-12-05T00:42:30;50055.69;;;-146.63;83.83
62462;BME280;48511;38.664;-9.202;2022-12-05T00:44:31;50047.78;;;-146.63;83.84
62462;BME280;48511;38.664;-9.202;2022-12-05T00:46:33;50051.75;;;-146.63;83.68
62462;BME280;48511;38.664;-9.202;2022-12-05T00:48:34;50032.00;;;-146.63;83.81
62462;BME280;48511;38.664;-9.202;2022-12-05T00:50:35;50073.44;;;-146.63;83.70
62462;BME280;48511;38.664;-9.202;2022-12-05T00:52:36;50051.75;;;-146.63;83.59
62462;BME280;48511;38.664;-9.202;2022-12-05T00:54:37;50065.56;;;-146.63;83.59
62462;BME280;48511;38.664;-9.202;2022-12-05T00:56:38;50059.63;;;-146.63;83.67
62462;BME280;48511;38.664;-9.202;2022-12-05T00:58:39;50039.91;;;-146.63;83.62
62462;BME280;48511;38.664;-9.202;2022-12-05T01:00:40;50051.75;;;-146.63;83.82
62462;BME280;48511;38.664;-9.202;2022-12-05T01:02:41;50053.72;;;-146.63;83.86
62462;BME280;48511;38.664;-9.202;2022-12-05T01:04:42;50099.09;;;-146.63;83.98
62462;BME280;48511;38.664;-9.202;2022-12-05T01:06:43;50061.59;;;-146.63;83.93
62462;BME280;48511;38.664;-9.202;2022-12-05T01:08:44;50037.94;;;-146.63;84.14
62462;BME280;48511;38.664;-9.202;2022-12-05T01:10:52;50033.97;;;-146.63;84.09
62462;BME280;48511;38.664;-9.202;2022-12-05T01:12:53;50069.50;;;-146.63;84.34
62462;BME280;48511;38.664;-9.202;2022-12-05T01:14:53;50055.69;;;-146.63;84.40
62462;BME280;48511;38.664;-9.202;2022-12-05T01:16:55;50057.66;;;-146.63;84.40
62462;BME280;48511;38.664;-9.202;2022-12-05T01:18:57;50043.84;;;-146.63;84.48
62462;BME280;48511;38.664;-9.202;2022-12-05T01:20:58;50063.59;;;-146.63;84.50
62462;BME280;48511;38.664;-9.202;2022-12-05T01:22:58;50075.44;;;-146.63;84.54
62462;BME280;48511;38.664;-9.202;2022-12-05T01:24:59;50016.22;;;-146.63;84.68
62462;BME280;48511;38.664;-9.202;2022-12-05T01:27:00;50028.06;;;-146.63;84.84
62462;BME280;48511;38.664;-9.202;2022-12-05T01:29:01;50055.69;;;-146.63;84.91
62462;BME280;48511;38.664;-9.202;2022-12-05T01:31:07;50024.09;;;-146.63;85.12
62462;BME280;48511;38.664;-9.202;2022-12-05T01:33:08;50035.94;;;-146.63;85.07
62462;BME280;48511;38.664;-9.202;2022-12-05T01:35:09;50061.59;;;-146.63;85.05
62462;BME280;48511;38.664;-9.202;2022-12-05T01:37:10;50067.53;;;-146.63;85.27
62462;BME280;48511;38.664;-9.202;2022-12-05T01:39:11;50041.88;;;-146.63;85.14
62462;BME280;48511;38.664;-9.202;2022-12-05T01:41:16;50071.47;;;-146.63;85.25
62462;BME280;48511;38.664;-9.202;2022-12-05T01:43:17;50055.69;;;-146.63;85.33
62462;BME280;48511;38.664;-9.202;2022-12-05T01:45:33;50073.44;;;-146.63;85.55
62462;BME280;48511;38.664;-9.202;2022-12-05T01:47:35;50057.66;;;-146.63;85.53
62462;BME280;48511;38.664;-9.202;2022-12-05T01:49:39;50075.44;;;-146.63;85.73
62462;BME280;48511;38.664;-9.202;2022-12-05T01:51:44;50063.59;;;-146.63;85.85
62462;BME280;48511;38.664;-9.202;2022-12-05T01:53:46;50055.69;;;-146.63;85.84
62462;BME280;48511;38.664;-9.202;2022-12-05T01:55:47;50065.56;;;-146.63;85.98
62462;BME280;48511;38.664;-9.202;2022-12-05T01:57:49;50067.53;;;-146.63;85.89
62462;BME280;48511;38.664;-9.202;2022-12-05T01:59:52;50059.63;;;-146.63;85.95
62462;BME280;48511;38.664;-9.202;2022-12-05T02:01:55;50010.28;;;-146.63;85.98
62462;BME280;48511;38.664;-9.202;2022-12-05T02:03:56;50032.00;;;-146.63;86.18
62462;BME280;48511;38.664;-9.202;2022-12-05T02:05:59;50043.84;;;-146.63;86.20
62462;BME280;48511;38.664;-9.202;2022-12-05T02:08:04;50055.69;;;-146.63;86.18
62462;BME280;48511;38.664;-9.202;2022-12-05T02:10:06;50035.94;;;-146.63;86.03
62462;BME280;48511;38.664;-9.202;2022-12-05T02:12:07;50028.06;;;-146.63;86.12
62462;BME280;48511;38.664;-9.202;2022-12-05T02:14:17;50030.03;;;-146.63;86.17
62462;BME280;48511;38.664;-9.202;2022-12-05T02:18:48;50041.88;;;-146.63;86.16
62462;BME280;48511;38.664;-9.202;2022-12-05T02:21:10;50099.09;;;-146.63;86.04
62462;BME280;48511;38.664;-9.202;2022-12-05T02:32:19;50063.59;;;-146.63;85.86
62462;BME280;48511;38.664;-9.202;2022-12-05T02:34:36;50059.63;;;-146.63;85.73
62462;BME280;48511;38.664;-9.202;2022-12-05T02:37:10;50039.91;;;-146.63;85.76
62462;BME280;48511;38.664;-9.202;2022-12-05T02:39:20;50061.59;;;-146.63;85.79
62462;BME280;48511;38.664;-9.202;2022-12-05T02:41:26;50067.53;;;-146.63;85.59
62462;BME280;48511;38.664;-9.202;2022-12-05T02:43:34;50053.72;;;-146.63;85.80
62462;BME280;48511;38.664;-9.202;2022-12-05T02:45:37;50020.16;;;-146.63;85.68
62462;BME280;48511;38.664;-9.202;2022-12-05T02:47:46;50047.78;;;-146.63;85.60
62462;BME280;48511;38.664;-9.202;2022-12-05T02:49:49;50073.44;;;-146.63;85.69
62462;BME280;48511;38.664;-9.202;2022-12-05T02:51:54;50051.75;;;-146.63;85.74
62462;BME280;48511;38.664;-9.202;2022-12-05T02:53:58;50053.72;;;-146.63;85.78
62462;BME280;48511;38.664;-9.202;2022-12-05T02:56:02;50051.75;;;-146.63;85.92
62462;BME280;48511;38.664;-9.202;2022-12-05T02:58:08;50065.56;;;-146.63;85.99
62462;BME280;48511;38.664;-9.202;2022-12-05T03:00:11;50026.09;;;-146.63;86.09
62462;BME280;48511;38.664;-9.202;2022-12-05T03:02:24;50051.75;;;-146.63;86.18
62462;BME280;48511;38.664;-9.202;2022-12-05T03:04:26;50059.63;;;-146.63;86.31
62462;BME280;48511;38.664;-9.202;2022-12-05T03:06:39;50055.69;;;-146.63;86.44
62462;BME280;48511;38.664;-9.202;2022-12-05T03:09:05;50091.22;;;-146.63;86.64
62462;BME280;48511;38.664;-9.202;2022-12-05T03:11:08;50067.53;;;-146.63;86.51
62462;BME280;48511;38.664;-9.202;2022-12-05T03:13:17;50051.75;;;-146.63;86.54
62462;BME280;48511;38.664;-9.202;2022-12-05T03:15:27;50091.22;;;-146.63;86.76
62462;BME280;48511;38.664;-9.202;2022-12-05T03:18:02;50067.53;;;-146.63;86.73
62462;BME280;48511;38.664;-9.202;2022-12-05T03:22:44;50051.75;;;-146.63;86.57
62462;BME280;48511;38.664;-9.202;2022-12-05T03:24:47;50035.94;;;-146.63;86.86
62462;BME280;48511;38.664;-9.202;2022-12-05T03:31:39;50087.28;;;-146.63;87.23
62462;BME280;48511;38.664;-9.202;2022-12-05T03:33:43;50028.06;;;-146.63;87.35
62462;BME280;48511;38.664;-9.202;2022-12-05T03:36:14;50073.44;;;-146.63;87.52
62462;BME280;48511;38.664;-9.202;2022-12-05T03:40:51;50069.50;;;-146.63;87.57
62462;BME280;48511;38.664;-9.202;2022-12-05T03:45:07;50067.53;;;-146.63;88.24
62462;BME280;48511;38.664;-9.202;2022-12-05T03:47:31;50075.44;;;-146.63;88.75
62462;BME280;48511;38.664;-9.202;2022-12-05T03:49:35;50065.56;;;-146.63;88.55
62462;BME280;48511;38.664;-9.202;2022-12-05T03:52:30;50057.66;;;-146.63;88.71
62462;BME280;48511;38.664;-9.202;2022-12-05T03:56:12;50055.69;;;-146.63;88.42
62462;BME280;48511;38.664;-9.202;2022-12-05T03:58:18;50049.78;;;-146.63;88.42
62462;BME280;48511;38.664;-9.202;2022-12-05T04:00:23;50107.00;;;-146.63;88.54
62462;BME280;48511;38.664;-9.202;2022-12-05T04:02:57;50097.13;;;-146.63;88.31
62462;BME280;48511;38.664;-9.202;2022-12-05T04:05:12;50087.28;;;-146.63;88.53
62462;BME280;48511;38.664;-9.202;2022-12-05T04:07:17;50059.63;;;-146.63;88.33
62462;BME280;48511;38.664;-9.202;2022-12-05T04:09:22;50047.78;;;-146.63;88.53
62462;BME280;48511;38.664;-9.202;2022-12-05T04:11:28;50071.47;;;-146.63;88.27
62462;BME280;48511;38.664;-9.202;2022-12-05T04:13:40;50099.09;;;-146.63;88.24
62462;BME280;48511;38.664;-9.202;2022-12-05T04:16:03;50077.41;;;-146.63;88.29
62462;BME280;48511;38.664;-9.202;2022-12-05T04:18:26;50063.59;;;-146.63;88.29
62462;BME280;48511;38.664;-9.202;2022-12-05T04:20:36;50049.78;;;-146.63;88.61
62462;BME280;48511;38.664;-9.202;2022-12-05T04:22:58;50075.44;;;-146.63;88.52
62462;BME280;48511;38.664;-9.202;2022-12-05T04:25:02;50071.47;;;-146.63;88.78
62462;BME280;48511;38.664;-9.202;2022-12-05T04:30:09;50039.91;;;-146.63;88.70
62462;BME280;48511;38.664;-9.202;2022-12-05T04:32:12;50063.59;;;-146.63;88.78
62462;BME280;48511;38.664;-9.202;2022-12-05T04:34:14;50059.63;;;-146.63;88.79
62462;BME280;48511;38.664;-9.202;2022-12-05T04:36:21;50083.31;;;-146.63;88.75
62462;BME280;48511;38.664;-9.202;2022-12-05T04:38:27;50055.69;;;-146.63;88.87
62462;BME280;48511;38.664;-9.202;2022-12-05T04:40:43;50071.47;;;-146.63;89.06
62462;BME280;48511;38.664;-9.202;2022-12-05T04:42:50;50035.94;;;-146.63;88.87
62462;BME280;48511;38.664;-9.202;2022-12-05T04:44:57;50028.06;;;-146.63;89.02
62462;BME280;48511;38.664;-9.202;2022-12-05T04:47:02;50043.84;;;-146.63;88.94
62462;BME280;48511;38.664;-9.202;2022-12-05T04:49:06;50047.78;;;-146.63;88.80
62462;BME280;48511;38.664;-9.202;2022-12-05T04:51:14;50073.44;;;-146.63;88.86
62462;BME280;48511;38.664;-9.202;2022-12-05T04:53:16;50071.47;;;-146.63;88.94
62462;BME280;48511;38.664;-9.202;2022-12-05T04:55:22;50071.47;;;-146.63;88.98
62462;BME280;48511;38.664;-9.202;2022-12-05T04:57:47;50051.75;;;-146.63;88.89
62462;BME280;48511;38.664;-9.202;2022-12-05T04:59:50;50055.69;;;-146.63;89.05
62462;BME280;48511;38.664;-9.202;2022-12-05T05:01:54;50083.31;;;-146.63;88.91
62462;BME280;48511;38.664;-9.202;2022-12-05T05:04:01;50055.69;;;-146.63;88.89
62462;BME280;48511;38.664;-9.202;2022-12-05T05:06:06;50079.38;;;-146.63;88.78
62462;BME280;48511;38.664;-9.202;2022-12-05T05:08:16;50065.56;;;-146.63;88.96
62462;BME280;48511;38.664;-9.202;2022-12-05T05:10:43;50057.66;;;-146.63;89.05
62462;BME280;48511;38.664;-9.202;2022-12-05T05:12:46;50055.69;;;-146.63;88.83
62462;BME280;48511;38.664;-9.202;2022-12-05T05:14:46;50032.00;;;-146.63;88.81
62462;BME280;48511;38.664;-9.202;2022-12-05T05:16:47;50035.94;;;-146.63;88.76
62462;BME280;48511;38.664;-9.202;2022-12-05T05:18:49;50087.28;;;-146.63;88.59
62462;BME280;48511;38.664;-9.202;2022-12-05T05:20:49;50069.50;;;-146.63;88.56
62462;BME280;48511;38.664;-9.202;2022-12-05T05:22:51;50035.94;;;-146.63;88.47
62462;BME280;48511;38.664;-9.202;2022-12-05T05:24:52;50043.84;;;-146.63;88.56
62462;BME280;48511;38.664;-9.202;2022-12-05T05:26:53;50069.50;;;-146.63;88.26
62462;BME280;48511;38.664;-9.202;2022-12-05T05:28:54;50055.69;;;-146.63;88.26
62462;BME280;48511;38.664;-9.202;2022-12-05T05:30:54;50083.31;;;-146.63;88.38
62462;BME280;48511;38.664;-9.202;2022-12-05T05:32:55;50075.44;;;-146.63;88.40
62462;BME280;48511;38.664;-9.202;2022-12-05T05:34:56;50033.97;;;-146.63;88.45
62462;BME280;48511;38.664;-9.202;2022-12-05T05:36:56;50067.53;;;-146.63;88.03
62462;BME280;48511;38.664;-9.202;2022-12-05T05:38:59;50063.59;;;-146.63;88.29
62462;BME280;48511;38.664;-9.202;2022-12-05T05:41:00;50043.84;;;-146.63;87.67
62462;BME280;48511;38.664;-9.202;2022-12-05T05:43:01;50043.84;;;-146.63;87.54
62462;BME280;48511;38.664;-9.202;2022-12-05T05:45:02;50010.28;;;-146.63;87.75
62462;BME280;48511;38.664;-9.202;2022-12-05T05:47:03;50053.72;;;-146.63;87.95
62462;BME280;48511;38.664;-9.202;2022-12-05T05:49:04;50099.09;;;-146.63;88.11
62462;BME280;48511;38.664;-9.202;2022-12-05T05:51:06;50071.47;;;-146.63;87.99
62462;BME280;48511;38.664;-9.202;2022-12-05T05:53:07;50059.63;;;-146.63;88.14
62462;BME280;48511;38.664;-9.202;2022-12-05T05:55:08;50033.97;;;-146.63;88.29
62462;BME280;48511;38.664;-9.202;2022-12-05T05:57:09;50063.59;;;-146.63;88.32
62462;BME280;48511;38.664;-9.202;2022-12-05T05:59:10;50055.69;;;-146.63;88.38
62462;BME280;48511;38.664;-9.202;2022-12-05T06:01:13;50063.59;;;-146.63;88.41
62462;BME280;48511;38.664;-9.202;2022-12-05T06:03:14;50043.84;;;-146.63;88.60
62462;BME280;48511;38.664;-9.202;2022-12-05T06:05:15;50067.53;;;-146.63;88.80
62462;BME280;48511;38.664;-9.202;2022-12-05T06:07:15;50065.56;;;-146.63;88.61
62462;BME280;48511;38.664;-9.202;2022-12-05T06:09:16;50067.53;;;-146.63;88.67
62462;BME280;48511;38.664;-9.202;2022-12-05T06:11:20;50047.78;;;-146.63;88.74
62462;BME280;48511;38.664;-9.202;2022-12-05T06:13:21;50051.75;;;-146.63;88.74
62462;BME280;48511;38.664;-9.202;2022-12-05T06:15:22;50051.75;;;-146.63;88.96
62462;BME280;48511;38.664;-9.202;2022-12-05T06:17:23;50087.28;;;-146.63;88.97
62462;BME280;48511;38.664;-9.202;2022-12-05T06:19:23;50087.28;;;-146.63;88.99
62462;BME280;48511;38.664;-9.202;2022-12-05T06:21:24;50033.97;;;-146.63;88.98
62462;BME280;48511;38.664;-9.202;2022-12-05T06:23:25;50059.63;;;-146.63;88.65
62462;BME280;48511;38.664;-9.202;2022-12-05T06:25:26;50059.63;;;-146.63;88.61
62462;BME280;48511;38.664;-9.202;2022-12-05T06:27:29;50087.28;;;-146.63;88.59
62462;BME280;48511;38.664;-9.202;2022-12-05T06:29:30;50065.56;;;-146.63;88.64
62462;BME280;48511;38.664;-9.202;2022-12-05T06:31:31;50087.28;;;-146.63;88.73
62462;BME280;48511;38.664;-9.202;2022-12-05T06:33:33;50051.75;;;-146.63;88.83
62462;BME280;48511;38.664;-9.202;2022-12-05T06:35:34;50059.63;;;-146.63;88.87
62462;BME280;48511;38.664;-9.202;2022-12-05T06:37:36;50065.56;;;-146.63;88.85
62462;BME280;48511;38.664;-9.202;2022-12-05T06:39:38;50035.94;;;-146.63;88.62
62462;BME280;48511;38.664;-9.202;2022-12-05T06:41:38;50043.84;;;-146.63;88.63
62462;BME280;48511;38.664;-9.202;2022-12-05T06:43:39;50047.78;;;-146.63;88.53
62462;BME280;48511;38.664;-9.202;2022-12-05T06:45:40;50085.28;;;-146.63;88.54
62462;BME280;48511;38.664;-9.202;2022-12-05T06:47:40;50032.00;;;-146.63;88.65
62462;BME280;48511;38.664;-9.202;2022-12-05T06:49:41;50059.63;;;-146.63;88.61
62462;BME280;48511;38.664;-9.202;2022-12-05T06:51:42;50053.72;;;-146.63;88.71
62462;BME280;48511;38.664;-9.202;2022-12-05T06:53:43;50073.44;;;-146.63;88.61
62462;BME280;48511;38.664;-9.202;2022-12-05T06:55:54;50059.63;;;-146.63;88.62
62462;BME280;48511;38.664;-9.202;2022-12-05T06:57:56;50081.34;;;-146.63;88.56
62462;BME280;48511;38.664;-9.202;2022-12-05T06:59:56;50055.69;;;-146.63;88.47
62462;BME280;48511;38.664;-9.202;2022-12-05T07:02:15;50057.66;;;-146.63;88.65
62462;BME280;48511;38.664;-9.202;2022-12-05T07:04:21;50043.84;;;-146.63;88.61
62462;BME280;48511;38.664;-9.202;2022-12-05T07:06:25;50057.66;;;-146.63;88.71
62462;BME280;48511;38.664;-9.202;2022-12-05T07:08:26;50053.72;;;-146.63;88.86
62462;BME280;48511;38.664;-9.202;2022-12-05T07:10:27;50073.44;;;-146.63;88.74
62462;BME280;48511;38.664;-9.202;2022-12-05T07:12:27;50073.44;;;-146.63;88.75
62462;BME280;48511;38.664;-9.202;2022-12-05T07:14:28;50059.63;;;-146.63;88.56
62462;BME280;48511;38.664;-9.202;2022-12-05T07:16:29;50055.69;;;-146.63;88.42
62462;BME280;48511;38.664;-9.202;2022-12-05T07:18:30;50053.72;;;-146.63;88.25
62462;BME280;48511;38.664;-9.202;2022-12-05T07:20:30;50037.94;;;-146.63;87.91
62462;BME280;48511;38.664;-9.202;2022-12-05T07:22:34;50063.59;;;-146.63;87.84
62462;BME280;48511;38.664;-9.202;2022-12-05T07:24:35;50075.44;;;-146.63;87.64
62462;BME280;48511;38.664;-9.202;2022-12-05T07:26:35;50067.53;;;-146.63;87.42
62462;BME280;48511;38.664;-9.202;2022-12-05T07:28:37;50101.09;;;-146.63;87.56
62462;BME280;48511;38.664;-9.202;2022-12-05T07:30:38;50083.31;;;-146.63;87.64
62462;BME280;48511;38.664;-9.202;2022-12-05T07:32:38;50071.47;;;-146.63;87.40
62462;BME280;48511;38.664;-9.202;2022-12-05T07:34:39;50024.09;;;-146.63;87.51
62462;BME280;48511;38.664;-9.202;2022-12-05T07:36:41;50083.31;;;-146.63;87.51
62462;BME280;48511;38.664;-9.202;2022-12-05T07:38:42;50067.53;;;-146.63;87.49
62462;BME280;48511;38.664;-9.202;2022-12-05T07:40:43;50030.03;;;-146.63;87.35
62462;BME280;48511;38.664;-9.202;2022-12-05T07:42:47;50047.78;;;-146.63;87.20
62462;BME280;48511;38.664;-9.202;2022-12-05T07:44:48;50069.50;;;-146.63;86.84
62462;BME280;48511;38.664;-9.202;2022-12-05T07:46:48;50055.69;;;-146.63;86.77
62462;BME280;48511;38.664;-9.202;2022-12-05T07:48:50;50057.66;;;-146.63;86.59
62462;BME280;48511;38.664;-9.202;2022-12-05T07:50:50;50087.28;;;-146.63;86.81
62462;BME280;48511;38.664;-9.202;2022-12-05T07:52:51;50067.53;;;-146.63;87.18
62462;BME280;48511;38.664;-9.202;2022-12-05T07:54:52;50067.53;;;-146.63;87.37
62462;BME280;48511;38.664;-9.202;2022-12-05T07:56:53;50053.72;;;-146.63;87.34
62462;BME280;48511;38.664;-9.202;2022-12-05T07:58:53;50059.63;;;-146.63;87.01
62462;BME280;48511;38.664;-9.202;2022-12-05T08:00:55;50061.59;;;-146.63;87.13
62462;BME280;48511;38.664;-9.202;2022-12-05T08:02:56;50075.44;;;-146.63;86.61
62462;BME280;48511;38.664;-9.202;2022-12-05T08:04:57;50089.25;;;-146.63;86.57
62462;BME280;48511;38.664;-9.202;2022-12-05T08:06:57;50097.13;;;-146.63;86.18
62462;BME280;48511;38.664;-9.202;2022-12-05T08:08:58;50051.75;;;-146.63;85.71
62462;BME280;48511;38.664;-9.202;2022-12-05T08:11:07;50059.63;;;-146.63;85.68
62462;BME280;48511;38.664;-9.202;2022-12-05T08:13:08;50063.59;;;-146.63;85.83
62462;BME280;48511;38.664;-9.202;2022-12-05T08:15:12;50103.06;;;-146.63;85.73
62462;BME280;48511;38.664;-9.202;2022-12-05T08:17:13;50047.78;;;-146.63;85.37
62462;BME280;48511;38.664;-9.202;2022-12-05T08:19:13;50114.91;;;-146.63;85.12
62462;BME280;48511;38.664;-9.202;2022-12-05T08:21:18;50061.59;;;-146.63;85.17
62462;BME280;48511;38.664;-9.202;2022-12-05T08:23:18;50083.31;;;-146.63;85.42
62462;BME280;48511;38.664;-9.202;2022-12-05T08:25:19;50051.75;;;-146.63;85.48
62462;BME280;48511;38.664;-9.202;2022-12-05T08:27:20;50083.31;;;-146.63;85.82
62462;BME280;48511;38.664;-9.202;2022-12-05T08:29:21;50059.63;;;-146.63;85.92
62462;BME280;48511;38.664;-9.202;2022-12-05T08:31:22;50103.06;;;-146.63;85.96
62462;BME280;48511;38.664;-9.202;2022-12-05T08:33:26;50032.00;;;-146.63;85.88
62462;BME280;48511;38.664;-9.202;2022-12-05T08:35:36;50028.06;;;-146.63;85.80
62462;BME280;48511;38.664;-9.202;2022-12-05T08:37:36;50051.75;;;-146.63;85.38
62462;BME280;48511;38.664;-9.202;2022-12-05T08:39:37;50069.50;;;-146.63;85.28
62462;BME280;48511;38.664;-9.202;2022-12-05T08:41:38;50045.81;;;-146.63;85.32
62462;BME280;48511;38.664;-9.202;2022-12-05T08:43:44;50047.78;;;-146.63;85.18
62462;BME280;48511;38.664;-9.202;2022-12-05T08:45:49;50049.78;;;-146.63;85.31
62462;BME280;48511;38.664;-9.202;2022-12-05T08:47:50;50065.56;;;-146.63;85.20
62462;BME280;48511;38.664;-9.202;2022-12-05T08:49:51;50043.84;;;-146.63;85.29
62462;BME280;48511;38.664;-9.202;2022-12-05T08:51:53;50071.47;;;-146.63;85.34
62462;BME280;48511;38.664;-9.202;2022-12-05T08:53:53;50067.53;;;-146.63;85.51
62462;BME280;48511;38.664;-9.202;2022-12-05T08:56:02;50055.69;;;-146.63;85.63
62462;BME280;48511;38.664;-9.202;2022-12-05T08:58:04;50091.22;;;-146.63;85.63
62462;BME280;48511;38.664;-9.202;2022-12-05T09:00:06;50051.75;;;-146.63;85.65
62462;BME280;48511;38.664;-9.202;2022-12-05T09:02:08;50053.72;;;-146.63;85.23
62462;BME280;48511;38.664;-9.202;2022-12-05T09:04:09;50049.78;;;-146.63;84.73
62462;BME280;48511;38.664;-9.202;2022-12-05T09:08:12;50010.28;;;-146.63;84.69
62462;BME280;48511;38.664;-9.202;2022-12-05T09:10:13;50032.00;;;-146.63;84.80
62462;BME280;48511;38.664;-9.202;2022-12-05T09:12:14;50091.22;;;-146.63;84.79
62462;BME280;48511;38.664;-9.202;2022-12-05T09:14:17;50061.59;;;-146.63;84.87
62462;BME280;48511;38.664;-9.202;2022-12-05T09:16:25;50045.81;;;-146.63;84.49
62462;BME280;48511;38.664;-9.202;2022-12-05T09:18:28;50075.44;;;-146.63;84.60
62462;BME280;48511;38.664;-9.202;2022-12-05T09:20:29;50075.44;;;-146.63;84.62
62462;BME280;48511;38.664;-9.202;2022-12-05T09:22:30;50091.22;;;-146.63;84.84
62462;BME280;48511;38.664;-9.202;2022-12-05T09:24:30;50095.16;;;-146.63;84.78
62462;BME280;48511;38.664;-9.202;2022-12-05T09:26:31;50085.28;;;-146.63;84.61
62462;BME280;48511;38.664;-9.202;2022-12-05T09:28:32;50091.22;;;-146.63;84.61
62462;BME280;48511;38.664;-9.202;2022-12-05T09:30:33;50081.34;;;-146.63;84.94
62462;BME280;48511;38.664;-9.202;2022-12-05T09:32:34;50051.75;;;-146.63;85.15
62462;BME280;48511;38.664;-9.202;2022-12-05T09:34:36;50032.00;;;-146.63;84.91
62462;BME280;48511;38.664;-9.202;2022-12-05T09:36:36;50065.56;;;-146.63;85.05
62462;BME280;48511;38.664;-9.202;2022-12-05T09:38:38;50063.59;;;-146.63;84.40
62462;BME280;48511;38.664;-9.202;2022-12-05T09:40:42;50059.63;;;-146.63;84.13
62462;BME280;48511;38.664;-9.202;2022-12-05T09:42:52;50067.53;;;-146.63;83.72
62462;BME280;48511;38.664;-9.202;2022-12-05T09:49:17;50069.50;;;-146.63;82.73
62462;BME280;48511;38.664;-9.202;2022-12-05T09:51:18;50055.69;;;-146.63;82.48
62462;BME280;48511;38.664;-9.202;2022-12-05T09:53:36;50065.56;;;-146.63;82.45
62462;BME280;48511;38.664;-9.202;2022-12-05T09:57:51;50043.84;;;-146.63;81.66
62462;BME280;48511;38.664;-9.202;2022-12-05T09:59:52;50053.72;;;-146.63;81.51
62462;BME280;48511;38.664;-9.202;2022-12-05T10:01:55;50024.09;;;-146.63;79.69
62462;BME280;48511;38.664;-9.202;2022-12-05T10:06:40;50039.91;;;-146.63;79.31
62462;BME280;48511;38.664;-9.202;2022-12-05T10:09:12;50045.81;;;-146.63;79.69
62462;BME280;48511;38.664;-9.202;2022-12-05T10:13:39;50063.59;;;-146.63;79.41
62462;BME280;48511;38.664;-9.202;2022-12-05T10:15:43;50039.91;;;-146.63;79.00
62462;BME280;48511;38.664;-9.202;2022-12-05T10:17:56;50047.78;;;-146.63;78.89
62462;BME280;48511;38.664;-9.202;2022-12-05T10:20:03;50075.44;;;-146.63;77.96
62462;BME280;48511;38.664;-9.202;2022-12-05T10:24:28;50033.97;;;-146.63;77.37
62462;BME280;48511;38.664;-9.202;2022-12-05T10:26:44;50047.78;;;-146.63;75.83
62462;BME280;48511;38.664;-9.202;2022-12-05T10:30:51;50067.53;;;-146.63;76.22
62462;BME280;48511;38.664;-9.202;2022-12-05T10:35:20;50069.50;;;-146.63;75.44
62462;BME280;48511;38.664;-9.202;2022-12-05T10:37:22;50047.78;;;-146.63;75.52
62462;BME280;48511;38.664;-9.202;2022-12-05T10:39:23;50051.75;;;-146.63;75.37
62462;BME280;48511;38.664;-9.202;2022-12-05T10:41:24;50061.59;;;-146.63;76.14
62462;BME280;48511;38.664;-9.202;2022-12-05T10:43:30;50024.09;;;-146.63;76.08
62462;BME280;48511;38.664;-9.202;2022-12-05T10:45:32;50091.22;;;-146.63;76.22
62462;BME280;48511;38.664;-9.202;2022-12-05T10:47:34;50110.94;;;-146.63;76.33
62462;BME280;48511;38.664;-9.202;2022-12-05T10:49:36;50045.81;;;-146.63;76.67
62462;BME280;48511;38.664;-9.202;2022-12-05T10:51:38;50079.38;;;-146.63;76.81
62462;BME280;48511;38.664;-9.202;2022-12-05T10:53:42;50067.53;;;-146.63;77.32
62462;BME280;48511;38.664;-9.202;2022-12-05T10:55:46;50039.91;;;-146.63;77.05
62462;BME280;48511;38.664;-9.202;2022-12-05T10:57:50;50105.03;;;-146.63;77.01
62462;BME280;48511;38.664;-9.202;2022-12-05T10:59:52;50045.81;;;-146.63;77.06
62462;BME280;48511;38.664;-9.202;2022-12-05T11:01:56;50083.31;;;-146.63;77.91
62462;BME280;48511;38.664;-9.202;2022-12-05T11:03:59;50061.59;;;-146.63;78.50
62462;BME280;48511;38.664;-9.202;2022-12-05T11:06:29;50071.47;;;-146.63;78.88
62462;BME280;48511;38.664;-9.202;2022-12-05T11:08:32;50059.63;;;-146.63;79.23
62462;BME280;48511;38.664;-9.202;2022-12-05T11:10:35;50081.34;;;-146.63;79.25
62462;BME280;48511;38.664;-9.202;2022-12-05T11:12:43;50075.44;;;-146.63;79.33
62462;BME280;48511;38.664;-9.202;2022-12-05T11:15:03;50020.16;;;-146.63;79.22
62462;BME280;48511;38.664;-9.202;2022-12-05T11:17:05;50063.59;;;-146.63;78.54
62462;BME280;48511;38.664;-9.202;2022-12-05T11:19:38;50059.63;;;-146.63;79.13
62462;BME280;48511;38.664;-9.202;2022-12-05T11:21:41;50045.81;;;-146.63;79.47